Minerva Astra — 9HDW7 — position and weather

sailwx.info

Track history (hours):
 
Tides and Currents Weather Stations Pressure Air Temp Water Temp Dewpoint Dewpoint Depression Visibility Wind Speed Wind Dir Waves Ship Positions

Minerva Astra

Last reported at 2017-Apr-29 05:27 UTC. Time now 2017-Apr-29 05:43 UTC.
Position N 59°52' E 025°46'.

Length 248 m; draft 8.5 m.

Type: Ship. MMSI: 256703000.

Date/timePositionNaut miles runAvg speedWind from/ knotsBaromVisibWave heightAir tempDewpointWater temp
2017-Apr-29 05:27N 59°52' E 025°46'510.1
2017-Apr-29 04:59N 59°51' E 025°37'7 9.8
2017-Apr-29 04:18N 59°50' E 025°24'3 9.7
2017-Apr-29 04:00N 59°49' E 025°18'5 9.9
2017-Apr-29 03:30N 59°48' E 025°09'510.0
2017-Apr-29 03:01N 59°47' E 024°59'1110.1
2017-Apr-29 01:58N 59°45' E 024°39'510.2
2017-Apr-29 01:27N 59°44' E 024°28'610.2
2017-Apr-29 00:51N 59°42' E 024°17'410.3
2017-Apr-29 00:26N 59°41' E 024°09'510.5
2017-Apr-29 00:00N 59°39' E 024°00'510.5
2017-Apr-28 23:31N 59°37' E 023°51'510.6
2017-Apr-28 23:00N 59°35' E 023°41'510.9
2017-Apr-28 22:30N 59°34' E 023°30'510.9
2017-Apr-28 22:00N 59°32' E 023°20'510.7
2017-Apr-28 21:31N 59°30' E 023°10'510.8
2017-Apr-28 21:01N 59°28' E 023°00'611.1
2017-Apr-28 20:30N 59°26' E 022°50'611.1
2017-Apr-28 20:01N 59°25' E 022°40'510.9
2017-Apr-28 19:31N 59°22' E 022°31'611.1
2017-Apr-28 19:00N 59°18' E 022°22'611.2
2017-Apr-28 18:30N 59°15' E 022°14'1111.1
2017-Apr-28 17:32N 59°08' E 021°57'011.2
2017-Apr-28 17:29N 59°08' E 021°56'  
2017-Apr-24 02:57N 58°44' E 018°11'205 8.8
2017-Apr-23 03:32N 55°38' E 015°30'012.4
2017-Apr-23 03:29N 55°38' E 015°29'612.5
2017-Apr-23 03:00N 55°35' E 015°20'612.7
2017-Apr-23 02:30N 55°32' E 015°10'612.5
2017-Apr-23 02:00N 55°30' E 014°60'612.6
2017-Apr-23 01:30N 55°27' E 014°49'612.6
2017-Apr-23 01:00N 55°25' E 014°39'612.2
2017-Apr-23 00:30N 55°20' E 014°33'612.1
2017-Apr-23 00:00N 55°15' E 014°26'612.2
2017-Apr-22 23:30N 55°10' E 014°20'612.2
2017-Apr-22 23:00N 55°05' E 014°14'611.9
2017-Apr-22 22:30N 55°01' E 014°07'612.3
2017-Apr-22 22:00N 54°59' E 013°56'612.2
2017-Apr-22 21:29N 54°57' E 013°46'612.2
2017-Apr-22 21:00N 54°55' E 013°36'612.3
2017-Apr-22 20:30N 54°53' E 013°26'612.4
2017-Apr-22 20:00N 54°51' E 013°16'812.5
2017-Apr-22 19:24N 54°49' E 013°03'512.4
2017-Apr-22 19:00N 54°47' E 012°55'612.4
2017-Apr-22 18:30N 54°45' E 012°45'612.5
2017-Apr-22 18:00N 54°41' E 012°36'1610.8
2017-Apr-22 16:29N 54°31' E 012°15'1610.8
2017-Apr-22 15:03N 54°25' E 011°50'113.2
2017-Apr-22 15:00N 54°25' E 011°49'613.0
2017-Apr-22 14:30N 54°27' E 011°39'1313.5
2017-Apr-22 13:30N 54°33' E 011°18'713.6
2017-Apr-22 13:00N 54°35' E 011°07'713.2
2017-Apr-22 12:31N 54°37' E 010°56'713.7
2017-Apr-22 12:01N 54°41' E 010°47'713.6
2017-Apr-22 11:30N 54°48' E 010°50'815.0
2017-Apr-22 11:00N 54°55' E 010°52'714.2
2017-Apr-22 10:31N 55°01' E 010°59'714.0
2017-Apr-22 10:01N 55°08' E 010°60'612.4
2017-Apr-22 09:30N 55°13' E 011°06'815.3
2017-Apr-22 08:59N 55°21' E 011°02'9912.3
2017-Apr-22 00:55N 56°57' E 011°44'712.9
2017-Apr-22 00:21N 57°04' E 011°40'513.2
2017-Apr-22 00:00N 57°08' E 011°36'613.3
2017-Apr-21 23:30N 57°14' E 011°32'713.6
2017-Apr-21 23:00N 57°20' E 011°27'713.5
2017-Apr-21 22:30N 57°26' E 011°22'612.5
2017-Apr-21 22:00N 57°31' E 011°14'713.1
2017-Apr-21 21:30N 57°34' E 011°03'713.4
2017-Apr-21 20:59N 57°37' E 010°51'511.3
2017-Apr-21 20:30N 57°41' E 010°45'3 5.8
2017-Apr-21 19:57N 57°44' E 010°45'3 6.3
2017-Apr-21 19:30N 57°47' E 010°44'510.6
2017-Apr-21 19:00N 57°48' E 010°34'713.0
2017-Apr-21 18:30N 57°49' E 010°22'713.1
2017-Apr-21 18:00N 57°47' E 010°10'23112.0
2017-Apr-20 22:44N 55°04' E 005°14'312.4
2017-Apr-20 22:30N 55°01' E 005°12'612.4
2017-Apr-20 21:59N 54°56' E 005°05'612.4
2017-Apr-20 21:29N 54°51' E 004°59'12312.0
2017-Apr-20 11:10N 53°14' E 002°48'212.9
2017-Apr-20 10:59N 53°12' E 002°46'9612.4
2017-Apr-20 03:14N 51°37' E 002°25'311.8
2017-Apr-20 03:00N 51°35' E 002°22'611.7
2017-Apr-20 02:30N 51°30' E 002°16'611.3
2017-Apr-20 02:00N 51°26' E 002°11'510.5
2017-Apr-20 01:30N 51°20' E 002°09'611.4
2017-Apr-20 01:00N 51°15' E 002°06'611.1
2017-Apr-20 00:30N 51°11' E 001°59'611.3
2017-Apr-20 00:00N 51°09' E 001°51'611.3
2017-Apr-19 23:30N 51°06' E 001°44'611.3
2017-Apr-19 23:00N 51°02' E 001°37'611.6
2017-Apr-19 22:30N 50°57' E 001°31'611.7
2017-Apr-19 22:00N 50°52' E 001°26'612.1
2017-Apr-19 21:30N 50°47' E 001°24'4410.8
2017-Apr-19 17:26N 50°23' E 000°25'511.4
2017-Apr-19 17:01N 50°22' E 000°17'611.6
2017-Apr-19 16:30N 50°20' E 000°09'611.9
2017-Apr-19 16:00N 50°19' W 000°00'612.3
2017-Apr-19 15:30N 50°17' W 000°10'10512.4
2017-Apr-19 07:03N 49°49' W 002°48'111.0
2017-Apr-19 06:58N 49°49' W 002°49'1311.0
2017-Apr-19 05:45N 49°43' W 003°07'  
Track history (hours):
 
Tides and Currents Weather Stations Pressure Air Temp Water Temp Dewpoint Dewpoint Depression Visibility Wind Speed Wind Dir Waves Ship Positions

Minerva Astra

Last reported at 2017-Apr-29 05:27 UTC. Time now 2017-Apr-29 05:43 UTC.
Position N 59°52' E 025°46'.

Length 248 m; draft 8.5 m.

Type: Ship. MMSI: 256703000.

Date/timePositionNaut miles runAvg speedWind from/ knotsBaromVisibWave heightAir tempDewpointWater temp
2017-Apr-29 05:27N 59°52' E 025°46'510.1
2017-Apr-29 04:59N 59°51' E 025°37'7 9.8
2017-Apr-29 04:18N 59°50' E 025°24'3 9.7
2017-Apr-29 04:00N 59°49' E 025°18'5 9.9
2017-Apr-29 03:30N 59°48' E 025°09'510.0
2017-Apr-29 03:01N 59°47' E 024°59'1110.1
2017-Apr-29 01:58N 59°45' E 024°39'510.2
2017-Apr-29 01:27N 59°44' E 024°28'610.2
2017-Apr-29 00:51N 59°42' E 024°17'410.3
2017-Apr-29 00:26N 59°41' E 024°09'510.5
2017-Apr-29 00:00N 59°39' E 024°00'510.5
2017-Apr-28 23:31N 59°37' E 023°51'510.6
2017-Apr-28 23:00N 59°35' E 023°41'510.9
2017-Apr-28 22:30N 59°34' E 023°30'510.9
2017-Apr-28 22:00N 59°32' E 023°20'510.7
2017-Apr-28 21:31N 59°30' E 023°10'510.8
2017-Apr-28 21:01N 59°28' E 023°00'611.1
2017-Apr-28 20:30N 59°26' E 022°50'611.1
2017-Apr-28 20:01N 59°25' E 022°40'510.9
2017-Apr-28 19:31N 59°22' E 022°31'611.1
2017-Apr-28 19:00N 59°18' E 022°22'611.2
2017-Apr-28 18:30N 59°15' E 022°14'1111.1
2017-Apr-28 17:32N 59°08' E 021°57'011.2
2017-Apr-28 17:29N 59°08' E 021°56'  
2017-Apr-24 02:57N 58°44' E 018°11'205 8.8
2017-Apr-23 03:32N 55°38' E 015°30'012.4
2017-Apr-23 03:29N 55°38' E 015°29'612.5
2017-Apr-23 03:00N 55°35' E 015°20'612.7
2017-Apr-23 02:30N 55°32' E 015°10'612.5
2017-Apr-23 02:00N 55°30' E 014°60'612.6
2017-Apr-23 01:30N 55°27' E 014°49'612.6
2017-Apr-23 01:00N 55°25' E 014°39'612.2
2017-Apr-23 00:30N 55°20' E 014°33'612.1
2017-Apr-23 00:00N 55°15' E 014°26'612.2
2017-Apr-22 23:30N 55°10' E 014°20'612.2
2017-Apr-22 23:00N 55°05' E 014°14'611.9
2017-Apr-22 22:30N 55°01' E 014°07'612.3
2017-Apr-22 22:00N 54°59' E 013°56'612.2
2017-Apr-22 21:29N 54°57' E 013°46'612.2
2017-Apr-22 21:00N 54°55' E 013°36'612.3
2017-Apr-22 20:30N 54°53' E 013°26'612.4
2017-Apr-22 20:00N 54°51' E 013°16'812.5
2017-Apr-22 19:24N 54°49' E 013°03'512.4
2017-Apr-22 19:00N 54°47' E 012°55'612.4
2017-Apr-22 18:30N 54°45' E 012°45'612.5
2017-Apr-22 18:00N 54°41' E 012°36'1610.8
2017-Apr-22 16:29N 54°31' E 012°15'1610.8
2017-Apr-22 15:03N 54°25' E 011°50'113.2
2017-Apr-22 15:00N 54°25' E 011°49'613.0
2017-Apr-22 14:30N 54°27' E 011°39'1313.5
2017-Apr-22 13:30N 54°33' E 011°18'713.6
2017-Apr-22 13:00N 54°35' E 011°07'713.2
2017-Apr-22 12:31N 54°37' E 010°56'713.7
2017-Apr-22 12:01N 54°41' E 010°47'713.6
2017-Apr-22 11:30N 54°48' E 010°50'815.0
2017-Apr-22 11:00N 54°55' E 010°52'714.2
2017-Apr-22 10:31N 55°01' E 010°59'714.0
2017-Apr-22 10:01N 55°08' E 010°60'612.4
2017-Apr-22 09:30N 55°13' E 011°06'815.3
2017-Apr-22 08:59N 55°21' E 011°02'9912.3
2017-Apr-22 00:55N 56°57' E 011°44'712.9
2017-Apr-22 00:21N 57°04' E 011°40'513.2
2017-Apr-22 00:00N 57°08' E 011°36'613.3
2017-Apr-21 23:30N 57°14' E 011°32'713.6
2017-Apr-21 23:00N 57°20' E 011°27'713.5
2017-Apr-21 22:30N 57°26' E 011°22'612.5
2017-Apr-21 22:00N 57°31' E 011°14'713.1
2017-Apr-21 21:30N 57°34' E 011°03'713.4
2017-Apr-21 20:59N 57°37' E 010°51'511.3
2017-Apr-21 20:30N 57°41' E 010°45'3 5.8
2017-Apr-21 19:57N 57°44' E 010°45'3 6.3
2017-Apr-21 19:30N 57°47' E 010°44'510.6
2017-Apr-21 19:00N 57°48' E 010°34'713.0
2017-Apr-21 18:30N 57°49' E 010°22'713.1
2017-Apr-21 18:00N 57°47' E 010°10'23112.0
2017-Apr-20 22:44N 55°04' E 005°14'312.4
2017-Apr-20 22:30N 55°01' E 005°12'612.4
2017-Apr-20 21:59N 54°56' E 005°05'612.4
2017-Apr-20 21:29N 54°51' E 004°59'12312.0
2017-Apr-20 11:10N 53°14' E 002°48'212.9
2017-Apr-20 10:59N 53°12' E 002°46'9612.4
2017-Apr-20 03:14N 51°37' E 002°25'311.8
2017-Apr-20 03:00N 51°35' E 002°22'611.7
2017-Apr-20 02:30N 51°30' E 002°16'611.3
2017-Apr-20 02:00N 51°26' E 002°11'510.5
2017-Apr-20 01:30N 51°20' E 002°09'611.4
2017-Apr-20 01:00N 51°15' E 002°06'611.1
2017-Apr-20 00:30N 51°11' E 001°59'611.3
2017-Apr-20 00:00N 51°09' E 001°51'611.3
2017-Apr-19 23:30N 51°06' E 001°44'611.3
2017-Apr-19 23:00N 51°02' E 001°37'611.6
2017-Apr-19 22:30N 50°57' E 001°31'611.7
2017-Apr-19 22:00N 50°52' E 001°26'612.1
2017-Apr-19 21:30N 50°47' E 001°24'4410.8
2017-Apr-19 17:26N 50°23' E 000°25'511.4
2017-Apr-19 17:01N 50°22' E 000°17'611.6
2017-Apr-19 16:30N 50°20' E 000°09'611.9
2017-Apr-19 16:00N 50°19' W 000°00'612.3
2017-Apr-19 15:30N 50°17' W 000°10'10512.4
2017-Apr-19 07:03N 49°49' W 002°48'111.0
2017-Apr-19 06:58N 49°49' W 002°49'1311.0
2017-Apr-19 05:45N 49°43' W 003°07'  

Dump ship's entire track history